createdAt,value
2022-08-18T00:03:18.480Z,24.63
2022-08-18T00:08:48.363Z,24.58
2022-08-18T00:14:23.204Z,24.57
2022-08-18T00:19:48.438Z,24.50
2022-08-18T00:24:56.330Z,24.49
2022-08-18T00:30:11.467Z,24.49
2022-08-18T00:35:29.048Z,24.47
2022-08-18T00:40:42.311Z,24.47
2022-08-18T00:45:51.652Z,24.44
2022-08-18T00:56:29.324Z,24.37
2022-08-18T01:01:39.919Z,24.30
2022-08-18T01:06:55.532Z,24.24
2022-08-18T01:12:00.064Z,24.18
2022-08-18T01:17:26.913Z,24.12
2022-08-18T01:22:54.075Z,24.06
2022-08-18T01:28:29.675Z,24.01
2022-08-18T01:33:39.252Z,23.93
2022-08-18T01:39:03.851Z,23.86
2022-08-18T01:44:16.761Z,23.79
2022-08-18T01:49:31.437Z,23.73
2022-08-18T01:54:50.156Z,23.70
2022-08-18T02:00:07.794Z,23.65
2022-08-18T02:05:23.091Z,23.61
2022-08-18T02:10:36.439Z,23.58
2022-08-18T02:15:45.653Z,23.54
2022-08-18T02:20:58.868Z,23.50
2022-08-18T02:26:13.406Z,23.47
2022-08-18T02:31:27.948Z,23.41
2022-08-18T02:36:35.189Z,23.37
2022-08-18T02:41:40.560Z,23.33
2022-08-18T02:46:59.308Z,23.32
2022-08-18T02:52:08.124Z,23.29
2022-08-18T02:57:14.070Z,23.30
2022-08-18T03:02:22.175Z,23.27
2022-08-18T03:07:28.347Z,23.25
2022-08-18T03:12:38.126Z,23.24
2022-08-18T03:17:59.656Z,23.23
2022-08-18T03:23:09.717Z,23.18
2022-08-18T03:28:21.861Z,23.16
2022-08-18T03:33:33.192Z,23.13
2022-08-18T03:38:44.201Z,23.12
2022-08-18T03:44:04.360Z,23.07
2022-08-18T03:49:19.889Z,23.02
2022-08-18T03:54:27.972Z,22.96
2022-08-18T03:59:50.068Z,22.95
2022-08-18T04:04:57.989Z,22.92
2022-08-18T04:10:19.414Z,22.91
2022-08-18T04:15:34.924Z,22.90
2022-08-18T04:20:58.900Z,22.89
2022-08-18T04:26:20.134Z,22.91
2022-08-18T04:36:56.614Z,22.93
2022-08-18T04:42:06.061Z,22.97
2022-08-18T04:47:27.147Z,23.02
2022-08-18T04:53:04.147Z,23.09
2022-08-18T04:58:18.169Z,23.12
2022-08-18T05:03:41.253Z,23.20
2022-08-18T05:09:01.352Z,23.31
2022-08-18T05:14:10.898Z,23.44
2022-08-18T05:19:29.285Z,23.56
2022-08-18T05:24:55.474Z,23.73
2022-08-18T05:30:04.705Z,23.91
2022-08-18T05:35:16.980Z,24.13
2022-08-18T05:40:27.060Z,24.45
2022-08-18T05:45:38.123Z,24.81
2022-08-18T05:50:44.807Z,25.54
2022-08-18T05:56:19.456Z,26.12
2022-08-18T06:01:53.176Z,26.82
2022-08-18T06:06:59.301Z,28.55
2022-08-18T06:12:24.276Z,29.99
2022-08-18T06:17:56.241Z,31.16
2022-08-18T06:23:14.094Z,32.32
2022-08-18T06:28:21.453Z,33.05
2022-08-18T06:33:46.015Z,32.53
2022-08-18T06:39:04.163Z,32.69
2022-08-18T06:44:13.929Z,31.94
2022-08-18T06:49:33.252Z,31.84
2022-08-18T06:54:51.294Z,32.09
2022-08-18T07:00:08.387Z,31.44
2022-08-18T07:05:21.089Z,31.04
2022-08-18T07:10:46.670Z,30.78
2022-08-18T07:15:52.496Z,30.51
2022-08-18T07:21:02.690Z,30.39
2022-08-18T07:26:15.620Z,30.25
2022-08-18T07:31:41.930Z,30.03
2022-08-18T07:36:59.909Z,29.74
2022-08-18T07:42:15.114Z,29.42
2022-08-18T07:48:15.857Z,29.31
2022-08-18T07:53:55.828Z,29.17
2022-08-18T07:59:13.639Z,28.90
2022-08-18T08:04:37.701Z,28.82
2022-08-18T08:09:53.322Z,28.92
2022-08-18T08:15:15.233Z,28.84
2022-08-18T08:20:36.949Z,28.65
2022-08-18T08:25:59.434Z,28.98
2022-08-18T08:31:36.153Z,29.15
2022-08-18T08:36:54.202Z,29.31
2022-08-18T08:42:30.919Z,29.33
2022-08-18T08:47:46.306Z,29.24
2022-08-18T08:53:03.915Z,29.23
2022-08-18T08:58:25.044Z,29.27
2022-08-18T09:03:43.252Z,29.29
2022-08-18T09:09:12.155Z,29.25
2022-08-18T09:14:59.280Z,29.32
2022-08-18T09:20:37.740Z,29.32
2022-08-18T09:26:23.011Z,29.51
2022-08-18T09:31:42.325Z,29.56
2022-08-18T09:37:11.144Z,29.77
2022-08-18T09:42:29.945Z,29.88
2022-08-18T09:53:59.570Z,29.86
2022-08-18T09:59:55.070Z,29.97
2022-08-18T10:05:37.334Z,29.96
2022-08-18T10:11:15.204Z,30.18
2022-08-18T10:17:13.412Z,30.31
2022-08-18T10:22:16.044Z,30.38
2022-08-18T10:28:07.795Z,30.42
2022-08-18T10:34:05.549Z,30.41
2022-08-18T10:39:43.953Z,30.51
2022-08-18T10:45:07.468Z,30.60
2022-08-18T10:50:32.292Z,30.53
2022-08-18T10:56:01.261Z,30.33
2022-08-18T11:01:18.749Z,30.02
2022-08-18T11:06:27.328Z,29.97
2022-08-18T11:11:42.235Z,29.91
2022-08-18T11:17:04.608Z,29.79
2022-08-18T11:27:57.729Z,29.54
2022-08-18T11:33:03.331Z,29.46
2022-08-18T11:43:46.606Z,29.38
2022-08-18T11:48:54.999Z,29.38
2022-08-18T11:54:03.337Z,29.30
2022-08-18T11:59:16.463Z,29.20
2022-08-18T12:10:19.388Z,29.18
2022-08-18T12:15:46.841Z,29.14
2022-08-18T12:20:52.299Z,29.12
2022-08-18T12:26:01.159Z,29.15
2022-08-18T12:31:17.068Z,29.15
2022-08-18T12:36:23.403Z,29.16
2022-08-18T12:41:37.375Z,29.09
2022-08-18T12:46:44.584Z,28.95
2022-08-18T12:51:50.746Z,28.81
2022-08-18T12:56:59.262Z,28.60
2022-08-18T13:02:09.242Z,28.42
2022-08-18T13:07:28.521Z,28.26
2022-08-18T13:12:43.198Z,28.02
2022-08-18T13:17:55.350Z,27.84
2022-08-18T13:23:06.051Z,27.73
2022-08-18T13:28:25.345Z,27.54
2022-08-18T13:33:57.166Z,27.41
2022-08-18T13:39:09.539Z,27.27
2022-08-18T13:44:25.774Z,27.17
2022-08-18T13:49:52.553Z,27.10
2022-08-18T13:55:16.870Z,27.00
2022-08-18T14:00:43.975Z,26.93
2022-08-18T14:05:51.773Z,26.86
2022-08-18T14:11:03.400Z,26.82
2022-08-18T14:16:23.784Z,26.77
2022-08-18T14:21:49.832Z,26.73
2022-08-18T14:26:55.910Z,26.68
2022-08-18T14:32:06.160Z,26.64
2022-08-18T14:37:10.865Z,26.57
2022-08-18T14:42:32.798Z,26.53
2022-08-18T14:47:50.333Z,26.52
2022-08-18T14:53:00.273Z,26.41
2022-08-18T14:58:07.505Z,26.24
2022-08-18T15:03:21.413Z,26.04
2022-08-18T15:08:49.984Z,25.91
2022-08-18T15:14:06.560Z,25.73
2022-08-18T15:19:58.876Z,25.66
2022-08-18T15:25:27.236Z,25.65
2022-08-18T15:30:50.993Z,25.66
2022-08-18T15:36:05.589Z,25.75
2022-08-18T15:41:44.090Z,25.86
2022-08-18T15:47:01.078Z,25.94
2022-08-18T15:52:39.234Z,26.01
2022-08-18T15:58:03.964Z,26.06
2022-08-18T16:03:35.945Z,26.10
2022-08-18T16:08:47.147Z,26.17
2022-08-18T16:13:54.627Z,26.22
2022-08-18T16:19:06.663Z,26.24
2022-08-18T16:24:18.255Z,26.28
2022-08-18T16:29:30.074Z,26.34
2022-08-18T16:34:36.669Z,26.35
2022-08-18T16:39:47.353Z,26.35
2022-08-18T16:44:53.925Z,26.34
2022-08-18T16:49:59.170Z,26.34
2022-08-18T16:55:15.447Z,26.34
2022-08-18T17:00:40.237Z,26.29
2022-08-18T17:05:47.260Z,26.28
2022-08-18T17:11:00.537Z,26.28
2022-08-18T17:16:10.769Z,26.25
2022-08-18T17:21:25.773Z,26.22
2022-08-18T17:26:52.689Z,26.19
2022-08-18T17:32:02.003Z,26.11
2022-08-18T17:37:12.704Z,26.04
2022-08-18T17:42:40.099Z,25.99
2022-08-18T17:47:53.428Z,25.97
2022-08-18T17:53:06.372Z,25.96
2022-08-18T17:58:21.971Z,25.91
2022-08-18T18:03:28.163Z,25.84
2022-08-18T18:09:01.037Z,25.80
2022-08-18T18:14:27.207Z,25.75
2022-08-18T18:19:42.219Z,25.68
2022-08-18T18:25:08.689Z,25.66
2022-08-18T18:30:27.825Z,25.63
2022-08-18T18:35:54.861Z,25.59
2022-08-18T18:41:07.789Z,25.57
2022-08-18T18:46:32.323Z,25.56
2022-08-18T18:51:45.692Z,25.51
2022-08-18T18:56:57.805Z,25.49
2022-08-18T19:02:33.034Z,25.45
2022-08-18T19:07:57.616Z,25.39
2022-08-18T19:13:25.079Z,25.36
2022-08-18T19:18:57.728Z,25.29
2022-08-18T19:24:23.405Z,25.25
2022-08-18T19:29:35.054Z,25.23
2022-08-18T19:34:52.607Z,25.19
2022-08-18T19:40:20.242Z,25.20
2022-08-18T19:45:57.573Z,25.20
2022-08-18T19:51:10.378Z,25.12
2022-08-18T19:56:37.359Z,25.07
2022-08-18T20:02:00.323Z,24.98
2022-08-18T20:07:38.632Z,24.87
2022-08-18T20:13:06.590Z,24.77
2022-08-18T20:18:23.330Z,24.69
2022-08-18T20:23:39.723Z,24.65
2022-08-18T20:28:54.277Z,24.61
2022-08-18T20:34:14.556Z,24.52
2022-08-18T20:39:52.544Z,24.36
2022-08-18T20:45:03.851Z,24.17
2022-08-18T20:50:45.608Z,24.04
2022-08-18T20:56:31.787Z,23.91
2022-08-18T21:01:31.099Z,23.80
2022-08-18T21:06:54.186Z,23.69
2022-08-18T21:12:03.544Z,23.56
2022-08-18T21:17:18.406Z,23.49
2022-08-18T21:22:27.833Z,23.40
2022-08-18T21:27:41.135Z,23.28
2022-08-18T21:32:54.675Z,23.20
2022-08-18T21:38:17.252Z,23.12
2022-08-18T21:43:49.378Z,22.91
2022-08-18T21:48:59.367Z,22.72
2022-08-18T21:54:13.810Z,22.60
2022-08-18T21:59:30.584Z,22.52
2022-08-18T22:04:55.277Z,22.46
2022-08-18T22:10:22.594Z,22.37
2022-08-18T22:15:44.592Z,22.36
2022-08-18T22:20:57.733Z,22.30
2022-08-18T22:31:38.232Z,22.27
2022-08-18T22:36:49.423Z,22.27
2022-08-18T22:47:24.801Z,22.24
2022-08-18T22:52:35.594Z,22.22
2022-08-18T22:57:44.172Z,22.24
2022-08-18T23:02:53.971Z,22.30
2022-08-18T23:07:59.305Z,22.32
2022-08-18T23:13:05.656Z,22.36
2022-08-18T23:18:14.218Z,22.41
2022-08-18T23:23:25.286Z,22.41
2022-08-18T23:28:56.267Z,22.44
2022-08-18T23:34:11.294Z,22.41
2022-08-18T23:39:19.994Z,22.37
2022-08-18T23:44:30.015Z,22.34
2022-08-18T23:49:44.708Z,22.33
2022-08-18T23:54:57.235Z,22.29
